sensor_id;sensor_type;location;lat;lon;timestamp;pressure;altitude;pressure_sealevel;temperature;humidity
80149;BME280;69473;42.426;26.644;2024-03-22T00:01:54;99177.53;;;4.33;70.55
80149;BME280;69473;42.426;26.644;2024-03-22T00:04:20;99181.00;;;4.35;70.32
80149;BME280;69473;42.426;26.644;2024-03-22T00:06:48;99179.78;;;4.21;70.89
80149;BME280;69473;42.426;26.644;2024-03-22T00:09:14;99176.22;;;4.16;70.80
80149;BME280;69473;42.426;26.644;2024-03-22T00:11:41;99184.16;;;4.24;70.20
80149;BME280;69473;42.426;26.644;2024-03-22T00:14:07;99164.72;;;4.33;69.80
80149;BME280;69473;42.426;26.644;2024-03-22T00:16:33;99176.72;;;4.36;68.57
80149;BME280;69473;42.426;26.644;2024-03-22T00:18:59;99168.38;;;4.45;68.68
80149;BME280;69473;42.426;26.644;2024-03-22T00:21:25;99167.69;;;4.50;67.93
80149;BME280;69473;42.426;26.644;2024-03-22T00:23:51;99171.31;;;4.58;67.98
80149;BME280;69473;42.426;26.644;2024-03-22T00:26:16;99176.16;;;4.48;67.54
80149;BME280;69473;42.426;26.644;2024-03-22T00:28:42;99180.56;;;4.52;67.88
80149;BME280;69473;42.426;26.644;2024-03-22T00:31:09;99179.00;;;4.58;65.92
80149;BME280;69473;42.426;26.644;2024-03-22T00:33:34;99183.06;;;4.50;67.04
80149;BME280;69473;42.426;26.644;2024-03-22T00:36:00;99183.94;;;4.51;67.47
80149;BME280;69473;42.426;26.644;2024-03-22T00:38:26;99192.16;;;4.37;69.96
80149;BME280;69473;42.426;26.644;2024-03-22T00:40:52;99190.13;;;4.24;70.60
80149;BME280;69473;42.426;26.644;2024-03-22T00:43:17;99196.25;;;3.98;71.51
80149;BME280;69473;42.426;26.644;2024-03-22T00:45:43;99187.44;;;3.86;73.07
80149;BME280;69473;42.426;26.644;2024-03-22T00:48:08;99185.84;;;3.91;73.40
80149;BME280;69473;42.426;26.644;2024-03-22T00:50:34;99183.09;;;3.84;74.04
80149;BME280;69473;42.426;26.644;2024-03-22T00:53:00;99180.97;;;3.69;74.09
80149;BME280;69473;42.426;26.644;2024-03-22T00:55:27;99188.66;;;3.69;73.77
80149;BME280;69473;42.426;26.644;2024-03-22T00:57:53;99171.72;;;3.74;73.26
80149;BME280;69473;42.426;26.644;2024-03-22T01:00:18;99181.16;;;3.77;73.50
80149;BME280;69473;42.426;26.644;2024-03-22T01:02:44;99184.19;;;3.62;73.59
80149;BME280;69473;42.426;26.644;2024-03-22T01:05:10;99188.41;;;3.60;72.99
80149;BME280;69473;42.426;26.644;2024-03-22T01:07:36;99190.88;;;3.57;73.16
80149;BME280;69473;42.426;26.644;2024-03-22T01:10:04;99195.06;;;3.55;73.42
80149;BME280;69473;42.426;26.644;2024-03-22T01:12:30;99196.66;;;3.50;73.10
80149;BME280;69473;42.426;26.644;2024-03-22T01:14:56;99201.88;;;3.53;72.79
80149;BME280;69473;42.426;26.644;2024-03-22T01:17:22;99195.88;;;3.52;73.75
80149;BME280;69473;42.426;26.644;2024-03-22T01:19:48;99196.94;;;3.59;72.74
80149;BME280;69473;42.426;26.644;2024-03-22T01:22:13;99201.13;;;3.57;72.71
80149;BME280;69473;42.426;26.644;2024-03-22T01:24:39;99202.06;;;3.60;72.82
80149;BME280;69473;42.426;26.644;2024-03-22T01:27:04;99207.25;;;3.62;72.44
80149;BME280;69473;42.426;26.644;2024-03-22T01:29:30;99210.53;;;3.58;73.62
80149;BME280;69473;42.426;26.644;2024-03-22T01:32:00;99210.19;;;3.45;73.41
80149;BME280;69473;42.426;26.644;2024-03-22T01:34:25;99210.00;;;3.39;73.72
80149;BME280;69473;42.426;26.644;2024-03-22T01:36:51;99214.34;;;3.42;73.07
80149;BME280;69473;42.426;26.644;2024-03-22T01:39:19;99210.00;;;3.39;73.88
80149;BME280;69473;42.426;26.644;2024-03-22T01:41:47;99208.09;;;3.32;73.72
80149;BME280;69473;42.426;26.644;2024-03-22T01:44:13;99208.09;;;3.32;72.80
80149;BME280;69473;42.426;26.644;2024-03-22T01:46:40;99206.19;;;3.25;73.40
80149;BME280;69473;42.426;26.644;2024-03-22T01:49:07;99203.06;;;3.35;72.56
80149;BME280;69473;42.426;26.644;2024-03-22T01:51:33;99204.13;;;3.42;72.49
80149;BME280;69473;42.426;26.644;2024-03-22T01:54:01;99206.81;;;3.46;71.73
80149;BME280;69473;42.426;26.644;2024-03-22T01:56:27;99198.91;;;3.39;71.54
80149;BME280;69473;42.426;26.644;2024-03-22T01:58:54;99198.72;;;3.33;71.64
80149;BME280;69473;42.426;26.644;2024-03-22T02:01:20;99199.44;;;3.27;72.40
80149;BME280;69473;42.426;26.644;2024-03-22T02:03:45;99203.91;;;3.34;71.60
80149;BME280;69473;42.426;26.644;2024-03-22T02:06:11;99203.75;;;3.30;72.48
80149;BME280;69473;42.426;26.644;2024-03-22T02:08:36;99193.78;;;3.39;71.36
80149;BME280;69473;42.426;26.644;2024-03-22T02:11:02;99205.06;;;3.45;71.13
80149;BME280;69473;42.426;26.644;2024-03-22T02:13:27;99202.97;;;3.32;71.18
80149;BME280;69473;42.426;26.644;2024-03-22T02:15:53;99209.69;;;3.27;70.95
80149;BME280;69473;42.426;26.644;2024-03-22T02:18:18;99214.91;;;3.32;70.03
80149;BME280;69473;42.426;26.644;2024-03-22T02:20:44;99219.84;;;3.24;70.66
80149;BME280;69473;42.426;26.644;2024-03-22T02:23:09;99226.88;;;3.31;70.45
80149;BME280;69473;42.426;26.644;2024-03-22T02:25:35;99219.72;;;3.50;67.97
80149;BME280;69473;42.426;26.644;2024-03-22T02:28:00;99227.03;;;3.37;68.03
80149;BME280;69473;42.426;26.644;2024-03-22T02:30:26;99232.78;;;3.30;70.03
80149;BME280;69473;42.426;26.644;2024-03-22T02:32:51;99237.00;;;3.28;70.79
80149;BME280;69473;42.426;26.644;2024-03-22T02:35:17;99239.56;;;3.28;70.59
80149;BME280;69473;42.426;26.644;2024-03-22T02:37:42;99238.63;;;3.24;71.27
80149;BME280;69473;42.426;26.644;2024-03-22T02:40:08;99236.56;;;3.13;71.77
80149;BME280;69473;42.426;26.644;2024-03-22T02:42:34;99244.78;;;3.03;71.98
80149;BME280;69473;42.426;26.644;2024-03-22T02:45:00;99249.81;;;2.99;71.87
80149;BME280;69473;42.426;26.644;2024-03-22T02:47:25;99248.03;;;2.98;71.73
80149;BME280;69473;42.426;26.644;2024-03-22T02:49:51;99247.91;;;2.94;72.32
80149;BME280;69473;42.426;26.644;2024-03-22T02:52:16;99248.31;;;3.08;71.46
80149;BME280;69473;42.426;26.644;2024-03-22T02:54:42;99257.69;;;3.07;71.01
80149;BME280;69473;42.426;26.644;2024-03-22T02:57:07;99248.22;;;3.05;71.44
80149;BME280;69473;42.426;26.644;2024-03-22T02:59:33;99246.59;;;3.07;71.13
80149;BME280;69473;42.426;26.644;2024-03-22T03:01:58;99247.06;;;3.22;69.88
80149;BME280;69473;42.426;26.644;2024-03-22T03:04:24;99232.53;;;3.21;70.12
80149;BME280;69473;42.426;26.644;2024-03-22T03:06:49;99227.03;;;3.09;70.55
80149;BME280;69473;42.426;26.644;2024-03-22T03:09:15;99230.47;;;3.09;70.56
80149;BME280;69473;42.426;26.644;2024-03-22T03:11:40;99217.50;;;3.05;70.79
80149;BME280;69473;42.426;26.644;2024-03-22T03:14:06;99220.72;;;2.97;71.14
80149;BME280;69473;42.426;26.644;2024-03-22T03:16:32;99221.00;;;3.07;70.86
80149;BME280;69473;42.426;26.644;2024-03-22T03:18:58;99228.63;;;3.05;70.56
80149;BME280;69473;42.426;26.644;2024-03-22T03:21:24;99220.63;;;2.94;71.57
80149;BME280;69473;42.426;26.644;2024-03-22T03:23:49;99221.53;;;2.96;71.53
80149;BME280;69473;42.426;26.644;2024-03-22T03:26:15;99237.59;;;2.92;71.11
80149;BME280;69473;42.426;26.644;2024-03-22T03:28:40;99237.81;;;2.98;71.20
80149;BME280;69473;42.426;26.644;2024-03-22T03:31:06;99228.84;;;2.84;71.47
80149;BME280;69473;42.426;26.644;2024-03-22T03:33:32;99233.00;;;2.81;71.44
80149;BME280;69473;42.426;26.644;2024-03-22T03:35:57;99232.28;;;2.86;71.13
80149;BME280;69473;42.426;26.644;2024-03-22T03:38:23;99235.00;;;2.91;71.62
80149;BME280;69473;42.426;26.644;2024-03-22T03:40:49;99234.25;;;2.93;71.09
80149;BME280;69473;42.426;26.644;2024-03-22T03:43:14;99243.66;;;2.94;70.78
80149;BME280;69473;42.426;26.644;2024-03-22T03:45:40;99253.06;;;2.95;70.35
80149;BME280;69473;42.426;26.644;2024-03-22T03:48:05;99262.16;;;3.13;70.32
80149;BME280;69473;42.426;26.644;2024-03-22T03:50:31;99263.69;;;3.08;69.96
80149;BME280;69473;42.426;26.644;2024-03-22T03:52:57;99265.34;;;3.06;70.37
80149;BME280;69473;42.426;26.644;2024-03-22T03:55:23;99261.97;;;3.07;70.23
80149;BME280;69473;42.426;26.644;2024-03-22T03:57:51;99261.56;;;2.94;70.93
80149;BME280;69473;42.426;26.644;2024-03-22T04:00:19;99261.38;;;2.88;70.82
80149;BME280;69473;42.426;26.644;2024-03-22T04:02:45;99264.31;;;3.00;70.88
80149;BME280;69473;42.426;26.644;2024-03-22T04:05:10;99270.56;;;3.09;70.90
80149;BME280;69473;42.426;26.644;2024-03-22T04:07:36;99268.19;;;3.15;70.53
80149;BME280;69473;42.426;26.644;2024-03-22T04:10:02;99276.50;;;3.08;70.77
80149;BME280;69473;42.426;26.644;2024-03-22T04:12:28;99275.69;;;3.09;71.20
80149;BME280;69473;42.426;26.644;2024-03-22T04:14:54;99277.50;;;3.13;70.91
80149;BME280;69473;42.426;26.644;2024-03-22T04:17:19;99284.56;;;3.20;70.69
80149;BME280;69473;42.426;26.644;2024-03-22T04:19:45;99290.22;;;3.10;71.30
80149;BME280;69473;42.426;26.644;2024-03-22T04:22:11;99280.81;;;3.09;71.70
80149;BME280;69473;42.426;26.644;2024-03-22T04:24:36;99277.63;;;3.16;71.28
80149;BME280;69473;42.426;26.644;2024-03-22T04:27:02;99275.78;;;3.12;71.20
80149;BME280;69473;42.426;26.644;2024-03-22T04:29:27;99274.50;;;2.99;71.54
80149;BME280;69473;42.426;26.644;2024-03-22T04:31:53;99289.28;;;3.08;71.37
80149;BME280;69473;42.426;26.644;2024-03-22T04:34:18;99304.81;;;3.12;70.84
80149;BME280;69473;42.426;26.644;2024-03-22T04:36:44;99317.03;;;3.21;70.67
80149;BME280;69473;42.426;26.644;2024-03-22T04:39:10;99332.78;;;3.06;70.99
80149;BME280;69473;42.426;26.644;2024-03-22T04:41:37;99331.31;;;2.87;71.85
80149;BME280;69473;42.426;26.644;2024-03-22T04:44:03;99340.19;;;2.98;72.26
80149;BME280;69473;42.426;26.644;2024-03-22T04:46:29;99328.53;;;3.07;72.06
80149;BME280;69473;42.426;26.644;2024-03-22T04:48:55;99327.06;;;4.29;68.61
80149;BME280;69473;42.426;26.644;2024-03-22T04:51:20;99314.88;;;5.58;62.04
80149;BME280;69473;42.426;26.644;2024-03-22T04:53:46;99310.50;;;6.37;59.15
80149;BME280;69473;42.426;26.644;2024-03-22T04:56:11;99308.41;;;5.77;60.08
80149;BME280;69473;42.426;26.644;2024-03-22T04:58:37;99298.63;;;5.61;61.05
80149;BME280;69473;42.426;26.644;2024-03-22T05:01:02;99282.19;;;6.36;58.48
80149;BME280;69473;42.426;26.644;2024-03-22T05:03:28;99302.47;;;6.20;58.81
80149;BME280;69473;42.426;26.644;2024-03-22T05:05:53;99310.53;;;5.95;59.52
80149;BME280;69473;42.426;26.644;2024-03-22T05:08:20;99316.34;;;6.29;57.53
80149;BME280;69473;42.426;26.644;2024-03-22T05:10:45;99336.53;;;5.69;59.75
80149;BME280;69473;42.426;26.644;2024-03-22T05:13:11;99340.16;;;6.18;58.27
80149;BME280;69473;42.426;26.644;2024-03-22T05:15:36;99338.28;;;6.10;58.71
80149;BME280;69473;42.426;26.644;2024-03-22T05:18:02;99338.38;;;6.14;58.36
80149;BME280;69473;42.426;26.644;2024-03-22T05:20:28;99337.50;;;7.62;52.78
80149;BME280;69473;42.426;26.644;2024-03-22T05:22:54;99336.56;;;8.99;50.05
80149;BME280;69473;42.426;26.644;2024-03-22T05:25:20;99326.38;;;11.44;44.10
80149;BME280;69473;42.426;26.644;2024-03-22T05:27:46;99321.88;;;10.26;46.05
80149;BME280;69473;42.426;26.644;2024-03-22T05:30:13;99312.41;;;10.31;44.83
80149;BME280;69473;42.426;26.644;2024-03-22T05:32:39;99310.75;;;8.20;50.13
80149;BME280;69473;42.426;26.644;2024-03-22T05:35:06;99310.59;;;8.07;51.34
80149;BME280;69473;42.426;26.644;2024-03-22T05:37:32;99312.34;;;10.25;47.14
80149;BME280;69473;42.426;26.644;2024-03-22T05:39:58;99302.16;;;11.26;43.73
80149;BME280;69473;42.426;26.644;2024-03-22T05:42:24;99300.72;;;12.87;39.62
80149;BME280;69473;42.426;26.644;2024-03-22T05:44:49;99306.31;;;13.44;38.10
80149;BME280;69473;42.426;26.644;2024-03-22T05:47:15;99315.06;;;14.19;36.64
80149;BME280;69473;42.426;26.644;2024-03-22T05:49:41;99314.97;;;15.45;34.63
80149;BME280;69473;42.426;26.644;2024-03-22T05:52:06;99313.91;;;14.41;35.73
80149;BME280;69473;42.426;26.644;2024-03-22T05:54:32;99322.75;;;12.21;40.41
80149;BME280;69473;42.426;26.644;2024-03-22T05:56:57;99334.69;;;12.56;40.40
80149;BME280;69473;42.426;26.644;2024-03-22T05:59:23;99338.53;;;13.32;39.39
80149;BME280;69473;42.426;26.644;2024-03-22T06:01:48;99330.34;;;12.55;39.45
80149;BME280;69473;42.426;26.644;2024-03-22T06:04:14;99339.59;;;13.05;39.50
80149;BME280;69473;42.426;26.644;2024-03-22T06:06:40;99334.66;;;13.75;37.39
80149;BME280;69473;42.426;26.644;2024-03-22T06:09:05;99336.06;;;14.76;36.73
80149;BME280;69473;42.426;26.644;2024-03-22T06:11:36;99337.00;;;15.28;35.17
80149;BME280;69473;42.426;26.644;2024-03-22T06:14:02;99327.09;;;14.95;35.74
80149;BME280;69473;42.426;26.644;2024-03-22T06:16:27;99330.63;;;13.43;38.36
80149;BME280;69473;42.426;26.644;2024-03-22T06:18:53;99328.59;;;14.45;35.72
80149;BME280;69473;42.426;26.644;2024-03-22T06:21:18;99341.31;;;13.06;38.94
80149;BME280;69473;42.426;26.644;2024-03-22T06:23:50;99345.16;;;12.44;39.36
80149;BME280;69473;42.426;26.644;2024-03-22T06:26:15;99345.97;;;12.51;39.15
80149;BME280;69473;42.426;26.644;2024-03-22T06:28:41;99341.25;;;13.12;40.00
80149;BME280;69473;42.426;26.644;2024-03-22T06:31:07;99347.38;;;14.05;37.75
80149;BME280;69473;42.426;26.644;2024-03-22T06:33:33;99345.84;;;15.19;35.55
80149;BME280;69473;42.426;26.644;2024-03-22T06:35:59;99347.94;;;16.84;32.32
80149;BME280;69473;42.426;26.644;2024-03-22T06:38:25;99330.13;;;17.70;31.26
80149;BME280;69473;42.426;26.644;2024-03-22T06:40:50;99328.22;;;18.69;29.81
80149;BME280;69473;42.426;26.644;2024-03-22T06:43:16;99336.13;;;18.38;28.73
80149;BME280;69473;42.426;26.644;2024-03-22T06:45:42;99323.69;;;18.76;29.47
80149;BME280;69473;42.426;26.644;2024-03-22T06:48:07;99324.34;;;19.89;27.08
80149;BME280;69473;42.426;26.644;2024-03-22T06:50:33;99319.56;;;20.23;26.58
80149;BME280;69473;42.426;26.644;2024-03-22T06:52:58;99323.38;;;19.91;26.85
80149;BME280;69473;42.426;26.644;2024-03-22T06:55:24;99327.66;;;20.66;26.53
80149;BME280;69473;42.426;26.644;2024-03-22T06:57:50;99333.72;;;20.44;26.83
80149;BME280;69473;42.426;26.644;2024-03-22T07:00:17;99332.47;;;20.78;26.07
80149;BME280;69473;42.426;26.644;2024-03-22T07:02:43;99337.47;;;21.91;24.88
80149;BME280;69473;42.426;26.644;2024-03-22T07:05:10;99351.03;;;21.41;25.76
80149;BME280;69473;42.426;26.644;2024-03-22T07:07:36;99340.47;;;22.62;24.13
80149;BME280;69473;42.426;26.644;2024-03-22T07:10:05;99353.53;;;23.20;23.45
80149;BME280;69473;42.426;26.644;2024-03-22T07:12:32;99350.25;;;23.34;23.55
80149;BME280;69473;42.426;26.644;2024-03-22T07:14:59;99346.03;;;22.94;23.43
80149;BME280;69473;42.426;26.644;2024-03-22T07:17:25;99342.81;;;23.06;23.65
80149;BME280;69473;42.426;26.644;2024-03-22T07:19:51;99346.63;;;22.03;23.90
80149;BME280;69473;42.426;26.644;2024-03-22T07:22:17;99339.22;;;24.29;21.87
80149;BME280;69473;42.426;26.644;2024-03-22T07:24:43;99345.88;;;22.59;23.43
80149;BME280;69473;42.426;26.644;2024-03-22T07:27:09;99344.25;;;22.93;23.28
80149;BME280;69473;42.426;26.644;2024-03-22T07:29:34;99355.34;;;20.76;25.06
80149;BME280;69473;42.426;26.644;2024-03-22T07:32:00;99362.66;;;19.71;27.29
80149;BME280;69473;42.426;26.644;2024-03-22T07:34:26;99372.00;;;18.98;28.23
80149;BME280;69473;42.426;26.644;2024-03-22T07:36:51;99381.03;;;17.96;30.09
80149;BME280;69473;42.426;26.644;2024-03-22T07:39:17;99378.94;;;17.03;30.93
80149;BME280;69473;42.426;26.644;2024-03-22T07:41:42;99379.59;;;16.72;31.87
80149;BME280;69473;42.426;26.644;2024-03-22T07:44:08;99370.63;;;16.85;33.28
80149;BME280;69473;42.426;26.644;2024-03-22T07:46:33;99371.81;;;16.27;32.39
80149;BME280;69473;42.426;26.644;2024-03-22T07:48:59;99371.47;;;15.50;34.31
80149;BME280;69473;42.426;26.644;2024-03-22T07:51:26;99365.63;;;14.75;35.57
80149;BME280;69473;42.426;26.644;2024-03-22T07:53:52;99378.31;;;14.33;36.47
80149;BME280;69473;42.426;26.644;2024-03-22T07:56:17;99380.78;;;13.60;38.34
80149;BME280;69473;42.426;26.644;2024-03-22T07:58:44;99377.22;;;12.43;40.40
80149;BME280;69473;42.426;26.644;2024-03-22T08:01:09;99392.00;;;12.19;41.39
80149;BME280;69473;42.426;26.644;2024-03-22T08:03:35;99386.78;;;12.32;40.79
80149;BME280;69473;42.426;26.644;2024-03-22T08:06:01;99393.78;;;12.05;41.23
80149;BME280;69473;42.426;26.644;2024-03-22T08:08:27;99403.28;;;12.18;41.35
80149;BME280;69473;42.426;26.644;2024-03-22T08:10:52;99388.53;;;12.17;41.22
80149;BME280;69473;42.426;26.644;2024-03-22T08:13:18;99396.41;;;11.33;42.07
80149;BME280;69473;42.426;26.644;2024-03-22T08:15:43;99386.88;;;12.01;40.85
80149;BME280;69473;42.426;26.644;2024-03-22T08:18:11;99395.53;;;11.75;40.67
80149;BME280;69473;42.426;26.644;2024-03-22T08:20:36;99388.59;;;11.87;40.30
80149;BME280;69473;42.426;26.644;2024-03-22T08:23:04;99394.69;;;11.96;41.95
80149;BME280;69473;42.426;26.644;2024-03-22T08:25:30;99383.22;;;12.51;39.84
80149;BME280;69473;42.426;26.644;2024-03-22T08:27:56;99388.47;;;12.42;40.34
80149;BME280;69473;42.426;26.644;2024-03-22T08:30:22;99386.72;;;12.50;39.75
80149;BME280;69473;42.426;26.644;2024-03-22T08:32:48;99389.97;;;12.89;39.63
80149;BME280;69473;42.426;26.644;2024-03-22T08:35:13;99390.16;;;12.49;39.14
80149;BME280;69473;42.426;26.644;2024-03-22T08:37:39;99395.44;;;12.37;40.45
80149;BME280;69473;42.426;26.644;2024-03-22T08:40:05;99392.09;;;11.89;39.80
80149;BME280;69473;42.426;26.644;2024-03-22T08:42:30;99388.47;;;12.39;39.79
80149;BME280;69473;42.426;26.644;2024-03-22T08:44:56;99384.81;;;12.77;40.17
80149;BME280;69473;42.426;26.644;2024-03-22T08:47:22;99386.34;;;13.11;38.29
80149;BME280;69473;42.426;26.644;2024-03-22T08:49:48;99378.69;;;12.93;39.21
80149;BME280;69473;42.426;26.644;2024-03-22T08:52:14;99390.00;;;12.80;39.22
80149;BME280;69473;42.426;26.644;2024-03-22T08:54:40;99390.78;;;12.97;38.06
80149;BME280;69473;42.426;26.644;2024-03-22T08:57:05;99385.47;;;13.11;37.70
80149;BME280;69473;42.426;26.644;2024-03-22T08:59:32;99391.28;;;13.53;37.53
80149;BME280;69473;42.426;26.644;2024-03-22T09:01:57;99388.59;;;13.65;37.10
80149;BME280;69473;42.426;26.644;2024-03-22T09:04:23;99382.81;;;13.28;36.51
80149;BME280;69473;42.426;26.644;2024-03-22T09:06:48;99386.25;;;13.30;37.70
80149;BME280;69473;42.426;26.644;2024-03-22T09:09:14;99379.63;;;12.77;39.12
80149;BME280;69473;42.426;26.644;2024-03-22T09:11:39;99377.47;;;13.46;37.82
80149;BME280;69473;42.426;26.644;2024-03-22T09:14:05;99370.41;;;13.57;38.07
80149;BME280;69473;42.426;26.644;2024-03-22T09:16:30;99376.06;;;12.99;38.37
80149;BME280;69473;42.426;26.644;2024-03-22T09:18:56;99365.38;;;13.36;39.02
80149;BME280;69473;42.426;26.644;2024-03-22T09:21:21;99371.31;;;13.53;38.44
80149;BME280;69473;42.426;26.644;2024-03-22T09:23:47;99363.63;;;13.38;39.65
80149;BME280;69473;42.426;26.644;2024-03-22T09:26:13;99370.31;;;13.67;39.23
80149;BME280;69473;42.426;26.644;2024-03-22T09:28:39;99366.09;;;13.52;39.60
80149;BME280;69473;42.426;26.644;2024-03-22T09:31:08;99363.25;;;13.81;39.39
80149;BME280;69473;42.426;26.644;2024-03-22T09:33:34;99360.72;;;13.73;38.30
80149;BME280;69473;42.426;26.644;2024-03-22T09:35:59;99357.56;;;13.40;36.80
80149;BME280;69473;42.426;26.644;2024-03-22T09:38:25;99353.50;;;12.98;38.00
80149;BME280;69473;42.426;26.644;2024-03-22T09:40:51;99352.41;;;13.30;38.15
80149;BME280;69473;42.426;26.644;2024-03-22T09:43:21;99357.84;;;13.98;38.18
80149;BME280;69473;42.426;26.644;2024-03-22T09:45:48;99347.63;;;13.81;35.77
80149;BME280;69473;42.426;26.644;2024-03-22T09:48:18;99345.44;;;13.36;35.69
80149;BME280;69473;42.426;26.644;2024-03-22T09:50:46;99343.22;;;13.88;36.56
80149;BME280;69473;42.426;26.644;2024-03-22T09:53:13;99333.63;;;13.91;36.71
80149;BME280;69473;42.426;26.644;2024-03-22T09:55:41;99331.13;;;14.54;35.36
80149;BME280;69473;42.426;26.644;2024-03-22T09:58:10;99334.22;;;14.13;36.02
80149;BME280;69473;42.426;26.644;2024-03-22T10:00:35;99333.97;;;14.35;33.14
80149;BME280;69473;42.426;26.644;2024-03-22T10:03:01;99347.16;;;14.24;32.48
80149;BME280;69473;42.426;26.644;2024-03-22T10:05:29;99345.72;;;13.95;33.02
80149;BME280;69473;42.426;26.644;2024-03-22T10:07:55;99328.47;;;13.85;33.33
80149;BME280;69473;42.426;26.644;2024-03-22T10:10:21;99332.00;;;13.81;33.40
80149;BME280;69473;42.426;26.644;2024-03-22T10:12:47;99336.91;;;14.08;33.74
80149;BME280;69473;42.426;26.644;2024-03-22T10:15:13;99330.03;;;14.01;35.21
80149;BME280;69473;42.426;26.644;2024-03-22T10:17:39;99334.50;;;13.90;35.26
80149;BME280;69473;42.426;26.644;2024-03-22T10:20:06;99326.97;;;13.62;34.49
80149;BME280;69473;42.426;26.644;2024-03-22T10:22:41;99320.22;;;13.43;33.66
80149;BME280;69473;42.426;26.644;2024-03-22T10:25:07;99321.84;;;13.53;33.61
80149;BME280;69473;42.426;26.644;2024-03-22T10:27:32;99313.78;;;13.79;33.72
80149;BME280;69473;42.426;26.644;2024-03-22T10:29:58;99316.03;;;14.12;33.38
80149;BME280;69473;42.426;26.644;2024-03-22T10:32:24;99303.94;;;14.04;33.49
80149;BME280;69473;42.426;26.644;2024-03-22T10:34:50;99303.50;;;14.38;34.19
80149;BME280;69473;42.426;26.644;2024-03-22T10:37:16;99296.47;;;14.46;34.46
80149;BME280;69473;42.426;26.644;2024-03-22T10:39:43;99291.06;;;14.62;33.99
80149;BME280;69473;42.426;26.644;2024-03-22T10:42:11;99288.47;;;14.60;34.48
80149;BME280;69473;42.426;26.644;2024-03-22T10:44:38;99279.13;;;14.42;33.18
80149;BME280;69473;42.426;26.644;2024-03-22T10:47:05;99273.69;;;14.61;33.58
80149;BME280;69473;42.426;26.644;2024-03-22T10:49:37;99283.13;;;14.69;33.24
80149;BME280;69473;42.426;26.644;2024-03-22T10:52:06;99277.13;;;14.63;32.25
80149;BME280;69473;42.426;26.644;2024-03-22T10:54:39;99263.19;;;14.64;33.98
80149;BME280;69473;42.426;26.644;2024-03-22T10:57:12;99267.84;;;15.00;34.13
80149;BME280;69473;42.426;26.644;2024-03-22T10:59:41;99263.00;;;14.76;33.89
80149;BME280;69473;42.426;26.644;2024-03-22T11:02:10;99266.88;;;14.47;32.57
80149;BME280;69473;42.426;26.644;2024-03-22T11:04:36;99265.03;;;14.59;31.59
80149;BME280;69473;42.426;26.644;2024-03-22T11:07:02;99254.66;;;14.55;32.19
80149;BME280;69473;42.426;26.644;2024-03-22T11:09:29;99256.28;;;14.63;34.05
80149;BME280;69473;42.426;26.644;2024-03-22T11:11:56;99254.19;;;14.86;33.43
80149;BME280;69473;42.426;26.644;2024-03-22T11:14:27;99255.25;;;14.73;31.84
80149;BME280;69473;42.426;26.644;2024-03-22T11:16:54;99258.22;;;14.45;32.97
80149;BME280;69473;42.426;26.644;2024-03-22T11:19:19;99252.63;;;14.73;33.34
80149;BME280;69473;42.426;26.644;2024-03-22T11:21:45;99244.78;;;14.74;33.57
80149;BME280;69473;42.426;26.644;2024-03-22T11:24:10;99241.50;;;15.16;33.62
80149;BME280;69473;42.426;26.644;2024-03-22T11:26:37;99239.72;;;15.18;32.05
80149;BME280;69473;42.426;26.644;2024-03-22T11:29:02;99239.88;;;15.09;31.92
80149;BME280;69473;42.426;26.644;2024-03-22T11:31:28;99238.22;;;15.05;31.75
80149;BME280;69473;42.426;26.644;2024-03-22T11:33:54;99227.94;;;14.95;32.15
80149;BME280;69473;42.426;26.644;2024-03-22T11:36:21;99231.66;;;14.81;30.84
80149;BME280;69473;42.426;26.644;2024-03-22T11:38:47;99220.56;;;15.19;30.97
80149;BME280;69473;42.426;26.644;2024-03-22T11:41:29;99223.84;;;14.81;32.14
80149;BME280;69473;42.426;26.644;2024-03-22T11:43:56;99223.97;;;15.24;31.58
80149;BME280;69473;42.426;26.644;2024-03-22T11:46:25;99221.94;;;15.38;30.84
80149;BME280;69473;42.426;26.644;2024-03-22T11:48:53;99206.88;;;15.06;31.79
80149;BME280;69473;42.426;26.644;2024-03-22T11:51:20;99215.28;;;15.22;32.70
80149;BME280;69473;42.426;26.644;2024-03-22T11:53:50;99210.91;;;15.22;32.12
80149;BME280;69473;42.426;26.644;2024-03-22T11:56:18;99214.31;;;14.78;31.46
80149;BME280;69473;42.426;26.644;2024-03-22T11:58:45;99215.06;;;14.86;29.51
80149;BME280;69473;42.426;26.644;2024-03-22T12:01:13;99207.22;;;14.86;28.82
80149;BME280;69473;42.426;26.644;2024-03-22T12:03:39;99198.13;;;15.09;29.93
80149;BME280;69473;42.426;26.644;2024-03-22T12:06:06;99192.81;;;15.15;28.78
80149;BME280;69473;42.426;26.644;2024-03-22T12:08:31;99202.72;;;14.96;28.85
80149;BME280;69473;42.426;26.644;2024-03-22T12:10:57;99200.41;;;14.76;29.18
80149;BME280;69473;42.426;26.644;2024-03-22T12:13:22;99183.47;;;14.47;29.56
80149;BME280;69473;42.426;26.644;2024-03-22T12:15:48;99190.75;;;13.57;30.14
80149;BME280;69473;42.426;26.644;2024-03-22T12:18:14;99184.53;;;14.34;29.84
80149;BME280;69473;42.426;26.644;2024-03-22T12:20:40;99187.97;;;14.93;29.38
80149;BME280;69473;42.426;26.644;2024-03-22T12:23:05;99170.28;;;15.08;29.11
80149;BME280;69473;42.426;26.644;2024-03-22T12:25:31;99175.66;;;15.01;29.33
80149;BME280;69473;42.426;26.644;2024-03-22T12:27:57;99179.53;;;14.76;27.31
80149;BME280;69473;42.426;26.644;2024-03-22T12:30:22;99172.34;;;14.90;27.50
80149;BME280;69473;42.426;26.644;2024-03-22T12:32:48;99173.44;;;14.78;28.11
80149;BME280;69473;42.426;26.644;2024-03-22T12:35:13;99158.41;;;14.91;28.10
80149;BME280;69473;42.426;26.644;2024-03-22T12:37:42;99164.59;;;14.86;27.94
80149;BME280;69473;42.426;26.644;2024-03-22T12:40:07;99158.56;;;14.82;29.11
80149;BME280;69473;42.426;26.644;2024-03-22T12:42:37;99158.19;;;15.04;28.58
80149;BME280;69473;42.426;26.644;2024-03-22T12:45:02;99159.94;;;15.05;26.33
80149;BME280;69473;42.426;26.644;2024-03-22T12:47:28;99160.00;;;15.01;27.41
80149;BME280;69473;42.426;26.644;2024-03-22T12:49:53;99160.38;;;14.80;28.86